KIJD

Windham Airport

Willimantic, Connecticut, USA
METAR KIJD 240152Z AUTO 30006KT 10SM CLR 22/09 A2996 RMK AO2 SLP142 T02220094
Observed Flight Rules
May-24 @ 01:52 UTC (20 minutes ago) Visual Flight Rules
Wind Visibility Clouds
300° at 6 knots 10 miles
  • Clear skies
Temperatures Readings
Current 22°C / 72°F
Dewpoint 9°C / 48°F
Humidity 44%
Altimeter 29.96" Hg
Pressure 1014.2 hPa
Elevation 75
METAR KIJD 240152Z AUTO 30006KT 10SM CLR 22/09 A2996 RMK AO2 SLP142 T02220094
Observed Flight Rules
May-24 @ 01:52 UTC
(20 minutes ago)
VFR
Wind Visibility
300° at 6 knots 10 miles
Clouds
  • Clear skies
Temperature Dewpoint
22°C / 72°F 9°C / 48°F
Humidity Altimeter Pressure
44% 29.96" Hg 1014.2 hPa